sensor_id;sensor_type;location;lat;lon;timestamp;P1;durP1;ratioP1;P2;durP2;ratioP2
80425;SDS011;69766;51.476;5.704;2023-06-04T00:01:05;14.20;;;4.47;;
80425;SDS011;69766;51.476;5.704;2023-06-04T00:03:31;8.30;;;3.70;;
80425;SDS011;69766;51.476;5.704;2023-06-04T00:05:57;8.43;;;3.60;;
80425;SDS011;69766;51.476;5.704;2023-06-04T00:08:23;5.55;;;3.55;;
80425;SDS011;69766;51.476;5.704;2023-06-04T00:10:49;7.57;;;3.47;;
80425;SDS011;69766;51.476;5.704;2023-06-04T00:13:14;6.10;;;2.90;;
80425;SDS011;69766;51.476;5.704;2023-06-04T00:15:40;8.27;;;3.47;;
80425;SDS011;69766;51.476;5.704;2023-06-04T00:18:06;5.80;;;2.72;;
80425;SDS011;69766;51.476;5.704;2023-06-04T00:20:32;7.25;;;2.92;;
80425;SDS011;69766;51.476;5.704;2023-06-04T00:22:58;11.70;;;2.55;;
80425;SDS011;69766;51.476;5.704;2023-06-04T00:25:24;5.22;;;2.50;;
80425;SDS011;69766;51.476;5.704;2023-06-04T00:27:51;4.57;;;2.25;;
80425;SDS011;69766;51.476;5.704;2023-06-04T00:30:17;6.25;;;2.38;;
80425;SDS011;69766;51.476;5.704;2023-06-04T00:32:42;6.28;;;2.28;;
80425;SDS011;69766;51.476;5.704;2023-06-04T00:35:08;6.22;;;2.30;;
80425;SDS011;69766;51.476;5.704;2023-06-04T00:37:34;4.07;;;2.13;;
80425;SDS011;69766;51.476;5.704;2023-06-04T00:40:00;4.47;;;1.88;;
80425;SDS011;69766;51.476;5.704;2023-06-04T00:42:26;4.22;;;2.15;;
80425;SDS011;69766;51.476;5.704;2023-06-04T00:44:52;3.22;;;1.80;;
80425;SDS011;69766;51.476;5.704;2023-06-04T00:47:22;5.68;;;2.10;;
80425;SDS011;69766;51.476;5.704;2023-06-04T00:49:48;7.68;;;2.55;;
80425;SDS011;69766;51.476;5.704;2023-06-04T00:52:15;3.95;;;2.00;;
80425;SDS011;69766;51.476;5.704;2023-06-04T00:54:42;3.35;;;2.05;;
80425;SDS011;69766;51.476;5.704;2023-06-04T00:57:08;4.82;;;1.92;;
80425;SDS011;69766;51.476;5.704;2023-06-04T00:59:35;5.40;;;2.30;;
80425;SDS011;69766;51.476;5.704;2023-06-04T01:02:13;4.10;;;1.80;;
80425;SDS011;69766;51.476;5.704;2023-06-04T01:07:36;3.08;;;1.70;;
80425;SDS011;69766;51.476;5.704;2023-06-04T01:10:05;4.05;;;1.90;;
80425;SDS011;69766;51.476;5.704;2023-06-04T01:12:33;4.95;;;2.47;;
80425;SDS011;69766;51.476;5.704;2023-06-04T01:14:58;5.28;;;2.20;;
80425;SDS011;69766;51.476;5.704;2023-06-04T01:22:48;4.90;;;1.92;;
80425;SDS011;69766;51.476;5.704;2023-06-04T01:25:27;6.85;;;1.98;;
80425;SDS011;69766;51.476;5.704;2023-06-04T01:28:05;6.20;;;1.67;;
80425;SDS011;69766;51.476;5.704;2023-06-04T01:30:34;4.78;;;2.38;;
80425;SDS011;69766;51.476;5.704;2023-06-04T01:33:02;4.60;;;1.90;;
80425;SDS011;69766;51.476;5.704;2023-06-04T01:35:36;5.70;;;2.08;;
80425;SDS011;69766;51.476;5.704;2023-06-04T01:38:02;3.65;;;1.90;;
80425;SDS011;69766;51.476;5.704;2023-06-04T01:40:31;3.25;;;1.88;;
80425;SDS011;69766;51.476;5.704;2023-06-04T01:42:57;3.13;;;1.80;;
80425;SDS011;69766;51.476;5.704;2023-06-04T01:45:28;5.65;;;2.10;;
80425;SDS011;69766;51.476;5.704;2023-06-04T01:47:55;3.17;;;1.70;;
80425;SDS011;69766;51.476;5.704;2023-06-04T01:50:22;5.97;;;2.15;;
80425;SDS011;69766;51.476;5.704;2023-06-04T01:52:48;5.65;;;2.00;;
80425;SDS011;69766;51.476;5.704;2023-06-04T01:55:15;9.55;;;2.40;;
80425;SDS011;69766;51.476;5.704;2023-06-04T01:57:43;5.18;;;1.80;;
80425;SDS011;69766;51.476;5.704;2023-06-04T02:00:09;3.83;;;1.77;;
80425;SDS011;69766;51.476;5.704;2023-06-04T02:02:37;6.10;;;2.10;;
80425;SDS011;69766;51.476;5.704;2023-06-04T02:05:06;5.85;;;1.83;;
80425;SDS011;69766;51.476;5.704;2023-06-04T02:07:42;5.63;;;2.03;;
80425;SDS011;69766;51.476;5.704;2023-06-04T02:10:26;5.28;;;2.50;;
80425;SDS011;69766;51.476;5.704;2023-06-04T02:12:54;4.78;;;2.25;;
80425;SDS011;69766;51.476;5.704;2023-06-04T02:18:13;6.80;;;2.40;;
80425;SDS011;69766;51.476;5.704;2023-06-04T02:20:47;7.32;;;2.33;;
80425;SDS011;69766;51.476;5.704;2023-06-04T02:23:34;4.95;;;2.20;;
80425;SDS011;69766;51.476;5.704;2023-06-04T02:26:03;6.68;;;2.33;;
80425;SDS011;69766;51.476;5.704;2023-06-04T02:28:29;5.28;;;2.65;;
80425;SDS011;69766;51.476;5.704;2023-06-04T02:30:54;4.10;;;2.15;;
80425;SDS011;69766;51.476;5.704;2023-06-04T02:33:20;3.25;;;2.00;;
80425;SDS011;69766;51.476;5.704;2023-06-04T02:35:46;4.20;;;2.10;;
80425;SDS011;69766;51.476;5.704;2023-06-04T02:38:11;4.38;;;2.22;;
80425;SDS011;69766;51.476;5.704;2023-06-04T02:40:38;5.88;;;2.10;;
80425;SDS011;69766;51.476;5.704;2023-06-04T02:43:04;4.93;;;2.15;;
80425;SDS011;69766;51.476;5.704;2023-06-04T02:45:30;4.68;;;2.53;;
80425;SDS011;69766;51.476;5.704;2023-06-04T02:47:56;5.18;;;2.38;;
80425;SDS011;69766;51.476;5.704;2023-06-04T02:50:22;4.88;;;2.08;;
80425;SDS011;69766;51.476;5.704;2023-06-04T02:52:48;5.68;;;2.13;;
80425;SDS011;69766;51.476;5.704;2023-06-04T02:55:13;5.93;;;2.10;;
80425;SDS011;69766;51.476;5.704;2023-06-04T02:57:40;7.80;;;2.40;;
80425;SDS011;69766;51.476;5.704;2023-06-04T03:00:10;6.22;;;2.35;;
80425;SDS011;69766;51.476;5.704;2023-06-04T03:02:41;4.53;;;2.63;;
80425;SDS011;69766;51.476;5.704;2023-06-04T03:05:12;4.97;;;2.50;;
80425;SDS011;69766;51.476;5.704;2023-06-04T03:07:40;3.58;;;1.98;;
80425;SDS011;69766;51.476;5.704;2023-06-04T03:10:08;6.13;;;2.20;;
80425;SDS011;69766;51.476;5.704;2023-06-04T03:12:35;4.60;;;2.20;;
80425;SDS011;69766;51.476;5.704;2023-06-04T03:15:01;5.90;;;2.80;;
80425;SDS011;69766;51.476;5.704;2023-06-04T03:17:27;4.78;;;2.25;;
80425;SDS011;69766;51.476;5.704;2023-06-04T03:19:53;4.03;;;2.10;;
80425;SDS011;69766;51.476;5.704;2023-06-04T03:22:21;6.03;;;2.30;;
80425;SDS011;69766;51.476;5.704;2023-06-04T03:24:47;6.18;;;2.42;;
80425;SDS011;69766;51.476;5.704;2023-06-04T03:27:12;7.18;;;2.58;;
80425;SDS011;69766;51.476;5.704;2023-06-04T03:29:38;5.18;;;2.50;;
80425;SDS011;69766;51.476;5.704;2023-06-04T03:32:05;6.07;;;2.40;;
80425;SDS011;69766;51.476;5.704;2023-06-04T03:34:31;3.72;;;2.08;;
80425;SDS011;69766;51.476;5.704;2023-06-04T03:36:57;5.65;;;2.58;;
80425;SDS011;69766;51.476;5.704;2023-06-04T03:39:23;5.53;;;2.72;;
80425;SDS011;69766;51.476;5.704;2023-06-04T03:41:49;5.35;;;3.00;;
80425;SDS011;69766;51.476;5.704;2023-06-04T03:44:14;5.97;;;2.45;;
80425;SDS011;69766;51.476;5.704;2023-06-04T03:46:41;5.22;;;2.70;;
80425;SDS011;69766;51.476;5.704;2023-06-04T03:49:08;4.28;;;2.40;;
80425;SDS011;69766;51.476;5.704;2023-06-04T03:51:35;5.18;;;2.72;;
80425;SDS011;69766;51.476;5.704;2023-06-04T03:54:04;6.10;;;2.40;;
80425;SDS011;69766;51.476;5.704;2023-06-04T03:56:30;4.75;;;2.45;;
80425;SDS011;69766;51.476;5.704;2023-06-04T03:58:56;6.38;;;2.65;;
80425;SDS011;69766;51.476;5.704;2023-06-04T04:01:22;5.15;;;2.33;;
80425;SDS011;69766;51.476;5.704;2023-06-04T04:03:51;5.07;;;2.45;;
80425;SDS011;69766;51.476;5.704;2023-06-04T04:06:17;4.97;;;2.80;;
80425;SDS011;69766;51.476;5.704;2023-06-04T04:08:44;4.00;;;2.33;;
80425;SDS011;69766;51.476;5.704;2023-06-04T04:11:19;7.78;;;2.83;;
80425;SDS011;69766;51.476;5.704;2023-06-04T04:13:45;9.32;;;3.05;;
80425;SDS011;69766;51.476;5.704;2023-06-04T04:16:11;4.68;;;2.70;;
80425;SDS011;69766;51.476;5.704;2023-06-04T04:18:37;7.47;;;2.75;;
80425;SDS011;69766;51.476;5.704;2023-06-04T04:21:03;4.78;;;2.50;;
80425;SDS011;69766;51.476;5.704;2023-06-04T04:23:30;6.90;;;2.80;;
80425;SDS011;69766;51.476;5.704;2023-06-04T04:25:57;7.72;;;2.63;;
80425;SDS011;69766;51.476;5.704;2023-06-04T04:28:24;3.67;;;2.13;;
80425;SDS011;69766;51.476;5.704;2023-06-04T04:30:54;5.40;;;2.35;;
80425;SDS011;69766;51.476;5.704;2023-06-04T04:36:33;6.57;;;3.15;;
80425;SDS011;69766;51.476;5.704;2023-06-04T04:39:05;6.15;;;2.90;;
80425;SDS011;69766;51.476;5.704;2023-06-04T04:41:31;7.68;;;2.80;;
80425;SDS011;69766;51.476;5.704;2023-06-04T04:44:02;9.38;;;3.08;;
80425;SDS011;69766;51.476;5.704;2023-06-04T04:46:29;6.68;;;2.97;;
80425;SDS011;69766;51.476;5.704;2023-06-04T04:48:55;6.70;;;2.92;;
80425;SDS011;69766;51.476;5.704;2023-06-04T04:54:25;8.10;;;2.80;;
80425;SDS011;69766;51.476;5.704;2023-06-04T04:56:56;5.97;;;2.60;;
80425;SDS011;69766;51.476;5.704;2023-06-04T04:59:26;5.88;;;2.50;;
80425;SDS011;69766;51.476;5.704;2023-06-04T05:01:52;5.50;;;2.70;;
80425;SDS011;69766;51.476;5.704;2023-06-04T05:04:17;5.32;;;2.53;;
80425;SDS011;69766;51.476;5.704;2023-06-04T05:06:43;5.20;;;2.58;;
80425;SDS011;69766;51.476;5.704;2023-06-04T05:09:09;4.88;;;2.45;;
80425;SDS011;69766;51.476;5.704;2023-06-04T05:11:37;5.35;;;2.50;;
80425;SDS011;69766;51.476;5.704;2023-06-04T05:14:03;6.40;;;2.88;;
80425;SDS011;69766;51.476;5.704;2023-06-04T05:16:48;6.50;;;2.58;;
80425;SDS011;69766;51.476;5.704;2023-06-04T05:19:17;6.18;;;3.10;;
80425;SDS011;69766;51.476;5.704;2023-06-04T05:21:42;7.82;;;2.80;;
80425;SDS011;69766;51.476;5.704;2023-06-04T05:24:09;5.80;;;2.60;;
80425;SDS011;69766;51.476;5.704;2023-06-04T05:26:35;4.20;;;2.42;;
80425;SDS011;69766;51.476;5.704;2023-06-04T05:29:02;5.70;;;2.70;;
80425;SDS011;69766;51.476;5.704;2023-06-04T05:31:29;7.28;;;2.75;;
80425;SDS011;69766;51.476;5.704;2023-06-04T05:33:58;7.05;;;2.60;;
80425;SDS011;69766;51.476;5.704;2023-06-04T05:36:26;4.72;;;2.70;;
80425;SDS011;69766;51.476;5.704;2023-06-04T05:38:56;6.80;;;2.60;;
80425;SDS011;69766;51.476;5.704;2023-06-04T05:41:25;4.68;;;2.35;;
80425;SDS011;69766;51.476;5.704;2023-06-04T05:43:52;4.90;;;2.45;;
80425;SDS011;69766;51.476;5.704;2023-06-04T05:46:18;5.32;;;2.28;;
80425;SDS011;69766;51.476;5.704;2023-06-04T05:48:44;7.55;;;2.90;;
80425;SDS011;69766;51.476;5.704;2023-06-04T05:51:10;9.35;;;2.60;;
80425;SDS011;69766;51.476;5.704;2023-06-04T05:53:41;6.60;;;2.53;;
80425;SDS011;69766;51.476;5.704;2023-06-04T05:56:07;5.00;;;2.40;;
80425;SDS011;69766;51.476;5.704;2023-06-04T05:58:33;6.57;;;2.22;;
80425;SDS011;69766;51.476;5.704;2023-06-04T06:01:01;6.32;;;2.55;;
80425;SDS011;69766;51.476;5.704;2023-06-04T06:03:28;3.97;;;2.10;;
80425;SDS011;69766;51.476;5.704;2023-06-04T06:05:54;6.22;;;2.88;;
80425;SDS011;69766;51.476;5.704;2023-06-04T06:08:20;4.32;;;2.53;;
80425;SDS011;69766;51.476;5.704;2023-06-04T06:10:46;4.95;;;2.90;;
80425;SDS011;69766;51.476;5.704;2023-06-04T06:13:12;5.15;;;2.63;;
80425;SDS011;69766;51.476;5.704;2023-06-04T06:15:38;6.60;;;2.45;;
80425;SDS011;69766;51.476;5.704;2023-06-04T06:18:04;5.88;;;2.30;;
80425;SDS011;69766;51.476;5.704;2023-06-04T06:20:31;4.72;;;2.20;;
80425;SDS011;69766;51.476;5.704;2023-06-04T06:22:57;6.75;;;2.45;;
80425;SDS011;69766;51.476;5.704;2023-06-04T06:25:30;6.38;;;2.53;;
80425;SDS011;69766;51.476;5.704;2023-06-04T06:27:56;8.38;;;2.70;;
80425;SDS011;69766;51.476;5.704;2023-06-04T06:30:21;5.20;;;2.67;;
80425;SDS011;69766;51.476;5.704;2023-06-04T06:32:47;5.68;;;2.33;;
80425;SDS011;69766;51.476;5.704;2023-06-04T06:35:13;6.10;;;2.45;;
80425;SDS011;69766;51.476;5.704;2023-06-04T06:37:39;4.32;;;2.03;;
80425;SDS011;69766;51.476;5.704;2023-06-04T06:40:07;5.07;;;1.77;;
80425;SDS011;69766;51.476;5.704;2023-06-04T06:42:34;5.13;;;2.10;;
80425;SDS011;69766;51.476;5.704;2023-06-04T06:44:59;4.97;;;2.15;;
80425;SDS011;69766;51.476;5.704;2023-06-04T06:47:25;6.88;;;2.20;;
80425;SDS011;69766;51.476;5.704;2023-06-04T06:49:51;4.72;;;2.13;;
80425;SDS011;69766;51.476;5.704;2023-06-04T06:52:17;6.63;;;2.15;;
80425;SDS011;69766;51.476;5.704;2023-06-04T06:54:44;6.38;;;2.28;;
80425;SDS011;69766;51.476;5.704;2023-06-04T06:57:10;3.05;;;1.80;;
80425;SDS011;69766;51.476;5.704;2023-06-04T06:59:36;5.10;;;2.08;;
80425;SDS011;69766;51.476;5.704;2023-06-04T07:02:02;4.82;;;1.90;;
80425;SDS011;69766;51.476;5.704;2023-06-04T07:04:28;5.00;;;2.28;;
80425;SDS011;69766;51.476;5.704;2023-06-04T07:06:54;3.90;;;2.08;;
80425;SDS011;69766;51.476;5.704;2023-06-04T07:09:20;4.38;;;1.90;;
80425;SDS011;69766;51.476;5.704;2023-06-04T07:11:45;7.18;;;1.92;;
80425;SDS011;69766;51.476;5.704;2023-06-04T07:14:11;4.50;;;2.03;;
80425;SDS011;69766;51.476;5.704;2023-06-04T07:16:37;4.85;;;2.03;;
80425;SDS011;69766;51.476;5.704;2023-06-04T07:19:02;2.42;;;1.70;;
80425;SDS011;69766;51.476;5.704;2023-06-04T07:21:28;4.82;;;2.35;;
80425;SDS011;69766;51.476;5.704;2023-06-04T07:23:54;4.63;;;2.10;;
80425;SDS011;69766;51.476;5.704;2023-06-04T07:26:19;2.78;;;1.67;;
80425;SDS011;69766;51.476;5.704;2023-06-04T07:28:45;3.47;;;1.55;;
80425;SDS011;69766;51.476;5.704;2023-06-04T07:31:11;4.65;;;1.95;;
80425;SDS011;69766;51.476;5.704;2023-06-04T07:33:40;4.30;;;1.92;;
80425;SDS011;69766;51.476;5.704;2023-06-04T07:36:08;4.57;;;1.65;;
80425;SDS011;69766;51.476;5.704;2023-06-04T07:38:35;4.38;;;1.70;;
80425;SDS011;69766;51.476;5.704;2023-06-04T07:41:01;5.32;;;1.65;;
80425;SDS011;69766;51.476;5.704;2023-06-04T07:43:27;4.18;;;1.80;;
80425;SDS011;69766;51.476;5.704;2023-06-04T07:45:52;3.67;;;1.98;;
80425;SDS011;69766;51.476;5.704;2023-06-04T07:48:18;3.28;;;1.20;;
80425;SDS011;69766;51.476;5.704;2023-06-04T07:50:43;2.53;;;1.60;;
80425;SDS011;69766;51.476;5.704;2023-06-04T07:53:09;2.85;;;1.38;;
80425;SDS011;69766;51.476;5.704;2023-06-04T07:55:35;2.60;;;1.27;;
80425;SDS011;69766;51.476;5.704;2023-06-04T07:58:00;4.65;;;1.63;;
80425;SDS011;69766;51.476;5.704;2023-06-04T08:00:26;4.30;;;1.35;;
80425;SDS011;69766;51.476;5.704;2023-06-04T08:02:51;4.72;;;1.65;;
80425;SDS011;69766;51.476;5.704;2023-06-04T08:05:17;3.38;;;1.60;;
80425;SDS011;69766;51.476;5.704;2023-06-04T08:07:43;4.15;;;1.48;;
80425;SDS011;69766;51.476;5.704;2023-06-04T08:10:09;2.03;;;1.30;;
80425;SDS011;69766;51.476;5.704;2023-06-04T08:12:35;3.20;;;1.50;;
80425;SDS011;69766;51.476;5.704;2023-06-04T08:15:01;4.25;;;1.52;;
80425;SDS011;69766;51.476;5.704;2023-06-04T08:17:27;4.78;;;1.35;;
80425;SDS011;69766;51.476;5.704;2023-06-04T08:19:53;3.78;;;1.00;;
80425;SDS011;69766;51.476;5.704;2023-06-04T08:22:18;3.47;;;1.27;;
80425;SDS011;69766;51.476;5.704;2023-06-04T08:24:44;4.13;;;1.60;;
80425;SDS011;69766;51.476;5.704;2023-06-04T08:27:10;3.40;;;1.30;;
80425;SDS011;69766;51.476;5.704;2023-06-04T08:29:36;1.52;;;0.75;;
80425;SDS011;69766;51.476;5.704;2023-06-04T08:32:02;4.15;;;1.10;;
80425;SDS011;69766;51.476;5.704;2023-06-04T08:34:28;5.63;;;1.27;;
80425;SDS011;69766;51.476;5.704;2023-06-04T08:36:54;5.95;;;1.38;;
80425;SDS011;69766;51.476;5.704;2023-06-04T08:39:20;4.10;;;1.50;;
80425;SDS011;69766;51.476;5.704;2023-06-04T08:41:52;2.83;;;1.20;;
80425;SDS011;69766;51.476;5.704;2023-06-04T08:44:21;3.20;;;1.35;;
80425;SDS011;69766;51.476;5.704;2023-06-04T08:46:51;4.03;;;1.52;;
80425;SDS011;69766;51.476;5.704;2023-06-04T08:49:18;3.13;;;1.00;;
80425;SDS011;69766;51.476;5.704;2023-06-04T08:51:46;4.63;;;1.30;;
80425;SDS011;69766;51.476;5.704;2023-06-04T08:54:12;3.65;;;1.10;;
80425;SDS011;69766;51.476;5.704;2023-06-04T08:56:38;4.80;;;1.00;;
80425;SDS011;69766;51.476;5.704;2023-06-04T09:01:35;2.85;;;1.10;;
80425;SDS011;69766;51.476;5.704;2023-06-04T09:04:06;1.63;;;0.88;;
80425;SDS011;69766;51.476;5.704;2023-06-04T09:06:32;2.70;;;1.00;;
80425;SDS011;69766;51.476;5.704;2023-06-04T09:08:59;1.40;;;0.75;;
80425;SDS011;69766;51.476;5.704;2023-06-04T09:12:11;5.80;;;1.23;;
80425;SDS011;69766;51.476;5.704;2023-06-04T09:16:48;3.40;;;0.88;;
80425;SDS011;69766;51.476;5.704;2023-06-04T09:19:17;3.92;;;1.10;;
80425;SDS011;69766;51.476;5.704;2023-06-04T09:24:19;6.18;;;1.20;;
80425;SDS011;69766;51.476;5.704;2023-06-04T09:26:46;1.75;;;0.70;;
80425;SDS011;69766;51.476;5.704;2023-06-04T09:29:12;2.95;;;1.10;;
80425;SDS011;69766;51.476;5.704;2023-06-04T09:31:39;2.17;;;0.95;;
80425;SDS011;69766;51.476;5.704;2023-06-04T09:34:06;1.15;;;0.68;;
80425;SDS011;69766;51.476;5.704;2023-06-04T09:36:32;2.97;;;0.65;;
80425;SDS011;69766;51.476;5.704;2023-06-04T09:39:00;2.58;;;1.02;;
80425;SDS011;69766;51.476;5.704;2023-06-04T09:41:39;2.90;;;0.95;;
80425;SDS011;69766;51.476;5.704;2023-06-04T09:44:05;2.50;;;0.70;;
80425;SDS011;69766;51.476;5.704;2023-06-04T09:46:31;2.88;;;0.90;;
80425;SDS011;69766;51.476;5.704;2023-06-04T09:49:00;2.00;;;0.93;;
80425;SDS011;69766;51.476;5.704;2023-06-04T09:51:28;2.75;;;0.88;;
80425;SDS011;69766;51.476;5.704;2023-06-04T09:54:04;1.88;;;0.80;;
80425;SDS011;69766;51.476;5.704;2023-06-04T09:56:38;1.85;;;1.08;;
80425;SDS011;69766;51.476;5.704;2023-06-04T09:59:05;1.83;;;0.70;;
80425;SDS011;69766;51.476;5.704;2023-06-04T10:01:33;2.28;;;0.85;;
80425;SDS011;69766;51.476;5.704;2023-06-04T10:04:02;1.38;;;0.73;;
80425;SDS011;69766;51.476;5.704;2023-06-04T10:06:30;1.60;;;0.77;;
80425;SDS011;69766;51.476;5.704;2023-06-04T10:08:59;1.90;;;0.70;;
80425;SDS011;69766;51.476;5.704;2023-06-04T10:11:37;2.33;;;0.90;;
80425;SDS011;69766;51.476;5.704;2023-06-04T10:14:10;1.55;;;0.88;;
80425;SDS011;69766;51.476;5.704;2023-06-04T10:16:44;1.33;;;0.80;;
80425;SDS011;69766;51.476;5.704;2023-06-04T10:19:11;2.50;;;0.90;;
80425;SDS011;69766;51.476;5.704;2023-06-04T10:21:37;1.55;;;0.70;;
80425;SDS011;69766;51.476;5.704;2023-06-04T10:24:03;2.55;;;0.82;;
80425;SDS011;69766;51.476;5.704;2023-06-04T10:26:29;1.73;;;0.80;;
80425;SDS011;69766;51.476;5.704;2023-06-04T10:28:57;1.73;;;0.88;;
80425;SDS011;69766;51.476;5.704;2023-06-04T10:31:25;2.58;;;0.80;;
80425;SDS011;69766;51.476;5.704;2023-06-04T10:33:54;3.30;;;0.82;;
80425;SDS011;69766;51.476;5.704;2023-06-04T10:38:52;2.88;;;0.90;;
80425;SDS011;69766;51.476;5.704;2023-06-04T10:41:20;4.32;;;1.23;;
80425;SDS011;69766;51.476;5.704;2023-06-04T10:43:47;1.95;;;0.77;;
80425;SDS011;69766;51.476;5.704;2023-06-04T10:46:17;2.88;;;0.82;;
80425;SDS011;69766;51.476;5.704;2023-06-04T10:48:52;4.82;;;1.00;;
80425;SDS011;69766;51.476;5.704;2023-06-04T10:51:31;1.95;;;0.80;;
80425;SDS011;69766;51.476;5.704;2023-06-04T10:53:58;1.65;;;0.60;;
80425;SDS011;69766;51.476;5.704;2023-06-04T10:56:28;2.17;;;1.00;;
80425;SDS011;69766;51.476;5.704;2023-06-04T10:58:57;3.50;;;0.75;;
80425;SDS011;69766;51.476;5.704;2023-06-04T11:01:24;2.97;;;0.73;;
80425;SDS011;69766;51.476;5.704;2023-06-04T11:03:51;3.63;;;1.05;;
80425;SDS011;69766;51.476;5.704;2023-06-04T11:06:16;2.50;;;1.00;;
80425;SDS011;69766;51.476;5.704;2023-06-04T11:08:42;3.60;;;1.00;;
80425;SDS011;69766;51.476;5.704;2023-06-04T11:11:12;2.95;;;1.10;;
80425;SDS011;69766;51.476;5.704;2023-06-04T11:13:41;4.53;;;1.17;;
80425;SDS011;69766;51.476;5.704;2023-06-04T11:16:17;2.40;;;1.05;;
80425;SDS011;69766;51.476;5.704;2023-06-04T11:18:43;1.88;;;1.10;;
80425;SDS011;69766;51.476;5.704;2023-06-04T11:21:20;1.88;;;0.75;;
80425;SDS011;69766;51.476;5.704;2023-06-04T11:23:46;3.38;;;1.00;;
80425;SDS011;69766;51.476;5.704;2023-06-04T11:26:12;2.72;;;0.80;;
80425;SDS011;69766;51.476;5.704;2023-06-04T11:28:38;1.60;;;0.77;;
80425;SDS011;69766;51.476;5.704;2023-06-04T11:31:05;3.15;;;0.88;;
80425;SDS011;69766;51.476;5.704;2023-06-04T11:33:46;2.13;;;1.05;;
80425;SDS011;69766;51.476;5.704;2023-06-04T11:36:29;3.35;;;0.93;;
80425;SDS011;69766;51.476;5.704;2023-06-04T11:38:59;2.65;;;0.98;;
80425;SDS011;69766;51.476;5.704;2023-06-04T11:41:29;7.45;;;1.20;;
80425;SDS011;69766;51.476;5.704;2023-06-04T11:43:56;2.78;;;1.02;;
80425;SDS011;69766;51.476;5.704;2023-06-04T11:46:23;4.45;;;1.05;;
80425;SDS011;69766;51.476;5.704;2023-06-04T11:48:52;2.55;;;1.20;;
80425;SDS011;69766;51.476;5.704;2023-06-04T11:51:19;1.83;;;0.70;;
80425;SDS011;69766;51.476;5.704;2023-06-04T11:53:46;3.33;;;1.10;;
80425;SDS011;69766;51.476;5.704;2023-06-04T11:56:12;2.20;;;0.80;;
80425;SDS011;69766;51.476;5.704;2023-06-04T11:58:38;2.78;;;0.98;;
80425;SDS011;69766;51.476;5.704;2023-06-04T12:01:06;3.45;;;1.20;;
80425;SDS011;69766;51.476;5.704;2023-06-04T12:03:36;4.47;;;1.27;;
80425;SDS011;69766;51.476;5.704;2023-06-04T12:06:13;1.88;;;0.80;;
80425;SDS011;69766;51.476;5.704;2023-06-04T12:08:47;3.58;;;1.10;;
80425;SDS011;69766;51.476;5.704;2023-06-04T12:13:57;3.60;;;1.10;;
80425;SDS011;69766;51.476;5.704;2023-06-04T12:16:24;1.92;;;1.08;;
80425;SDS011;69766;51.476;5.704;2023-06-04T12:18:50;3.40;;;1.20;;
80425;SDS011;69766;51.476;5.704;2023-06-04T12:21:25;3.38;;;1.77;;
80425;SDS011;69766;51.476;5.704;2023-06-04T12:24:13;3.72;;;1.10;;
80425;SDS011;69766;51.476;5.704;2023-06-04T12:26:38;2.58;;;1.00;;
80425;SDS011;69766;51.476;5.704;2023-06-04T12:29:15;4.38;;;1.10;;
80425;SDS011;69766;51.476;5.704;2023-06-04T12:31:45;2.53;;;1.10;;
80425;SDS011;69766;51.476;5.704;2023-06-04T12:34:13;2.13;;;1.10;;
80425;SDS011;69766;51.476;5.704;2023-06-04T12:36:39;2.35;;;0.90;;
80425;SDS011;69766;51.476;5.704;2023-06-04T12:39:05;2.75;;;0.90;;
80425;SDS011;69766;51.476;5.704;2023-06-04T12:41:32;2.83;;;1.30;;
80425;SDS011;69766;51.476;5.704;2023-06-04T12:43:58;3.40;;;0.90;;
80425;SDS011;69766;51.476;5.704;2023-06-04T12:46:25;2.67;;;0.93;;
80425;SDS011;69766;51.476;5.704;2023-06-04T12:48:51;2.72;;;1.10;;
80425;SDS011;69766;51.476;5.704;2023-06-04T12:51:18;4.82;;;1.10;;
80425;SDS011;69766;51.476;5.704;2023-06-04T12:53:44;4.20;;;1.10;;
80425;SDS011;69766;51.476;5.704;2023-06-04T12:56:10;3.85;;;1.30;;
80425;SDS011;69766;51.476;5.704;2023-06-04T12:58:36;3.30;;;1.23;;
80425;SDS011;69766;51.476;5.704;2023-06-04T13:01:02;3.10;;;1.20;;
80425;SDS011;69766;51.476;5.704;2023-06-04T13:03:29;2.40;;;1.13;;
80425;SDS011;69766;51.476;5.704;2023-06-04T13:05:55;2.72;;;1.00;;
80425;SDS011;69766;51.476;5.704;2023-06-04T13:08:21;2.10;;;1.35;;
80425;SDS011;69766;51.476;5.704;2023-06-04T13:10:47;5.40;;;1.20;;
80425;SDS011;69766;51.476;5.704;2023-06-04T13:13:14;6.10;;;1.23;;
80425;SDS011;69766;51.476;5.704;2023-06-04T13:15:43;2.05;;;0.98;;
80425;SDS011;69766;51.476;5.704;2023-06-04T13:18:10;2.83;;;1.40;;
80425;SDS011;69766;51.476;5.704;2023-06-04T13:20:36;4.30;;;1.10;;
80425;SDS011;69766;51.476;5.704;2023-06-04T13:23:02;4.95;;;1.17;;
80425;SDS011;69766;51.476;5.704;2023-06-04T13:25:28;2.83;;;1.20;;
80425;SDS011;69766;51.476;5.704;2023-06-04T13:27:55;2.97;;;1.13;;
80425;SDS011;69766;51.476;5.704;2023-06-04T13:30:21;3.67;;;1.20;;
80425;SDS011;69766;51.476;5.704;2023-06-04T13:32:47;4.85;;;1.48;;
80425;SDS011;69766;51.476;5.704;2023-06-04T13:35:13;4.85;;;1.90;;
80425;SDS011;69766;51.476;5.704;2023-06-04T13:37:40;3.17;;;1.67;;
80425;SDS011;69766;51.476;5.704;2023-06-04T13:40:05;3.05;;;1.35;;
80425;SDS011;69766;51.476;5.704;2023-06-04T13:42:32;3.88;;;1.45;;
80425;SDS011;69766;51.476;5.704;2023-06-04T13:44:58;2.15;;;1.20;;
80425;SDS011;69766;51.476;5.704;2023-06-04T13:47:24;4.65;;;1.50;;
80425;SDS011;69766;51.476;5.704;2023-06-04T13:49:50;3.35;;;1.20;;
80425;SDS011;69766;51.476;5.704;2023-06-04T13:52:16;3.25;;;1.30;;
80425;SDS011;69766;51.476;5.704;2023-06-04T13:54:42;1.98;;;1.10;;
80425;SDS011;69766;51.476;5.704;2023-06-04T13:57:07;5.38;;;1.60;;
80425;SDS011;69766;51.476;5.704;2023-06-04T13:59:36;4.47;;;1.52;;
80425;SDS011;69766;51.476;5.704;2023-06-04T14:02:03;3.25;;;1.50;;
80425;SDS011;69766;51.476;5.704;2023-06-04T14:04:28;2.70;;;1.20;;
80425;SDS011;69766;51.476;5.704;2023-06-04T14:06:54;2.28;;;1.27;;
80425;SDS011;69766;51.476;5.704;2023-06-04T14:09:20;3.20;;;0.93;;
80425;SDS011;69766;51.476;5.704;2023-06-04T14:11:45;4.97;;;1.40;;
80425;SDS011;69766;51.476;5.704;2023-06-04T14:14:16;3.83;;;1.13;;
80425;SDS011;69766;51.476;5.704;2023-06-04T14:16:42;4.32;;;1.40;;
80425;SDS011;69766;51.476;5.704;2023-06-04T14:19:09;2.53;;;1.10;;
80425;SDS011;69766;51.476;5.704;2023-06-04T14:21:35;3.28;;;1.10;;
80425;SDS011;69766;51.476;5.704;2023-06-04T14:24:01;2.33;;;1.40;;
80425;SDS011;69766;51.476;5.704;2023-06-04T14:26:27;4.03;;;1.48;;
80425;SDS011;69766;51.476;5.704;2023-06-04T14:28:54;3.55;;;1.40;;
80425;SDS011;69766;51.476;5.704;2023-06-04T14:31:20;5.60;;;1.63;;
80425;SDS011;69766;51.476;5.704;2023-06-04T14:33:46;3.47;;;1.38;;
80425;SDS011;69766;51.476;5.704;2023-06-04T14:36:12;2.00;;;1.05;;
80425;SDS011;69766;51.476;5.704;2023-06-04T14:38:38;3.47;;;1.23;;
80425;SDS011;69766;51.476;5.704;2023-06-04T14:41:04;2.85;;;1.40;;
80425;SDS011;69766;51.476;5.704;2023-06-04T14:43:30;3.72;;;1.27;;
80425;SDS011;69766;51.476;5.704;2023-06-04T14:45:56;3.15;;;1.30;;
80425;SDS011;69766;51.476;5.704;2023-06-04T14:48:21;2.83;;;1.15;;
80425;SDS011;69766;51.476;5.704;2023-06-04T14:50:48;2.90;;;1.45;;
80425;SDS011;69766;51.476;5.704;2023-06-04T14:53:14;2.50;;;1.42;;
80425;SDS011;69766;51.476;5.704;2023-06-04T14:55:40;2.80;;;1.40;;
80425;SDS011;69766;51.476;5.704;2023-06-04T14:58:06;2.25;;;1.20;;
80425;SDS011;69766;51.476;5.704;2023-06-04T15:00:32;2.53;;;1.15;;
80425;SDS011;69766;51.476;5.704;2023-06-04T15:02:57;2.80;;;1.45;;
80425;SDS011;69766;51.476;5.704;2023-06-04T15:05:25;3.00;;;1.23;;
80425;SDS011;69766;51.476;5.704;2023-06-04T15:07:50;2.53;;;1.42;;
80425;SDS011;69766;51.476;5.704;2023-06-04T15:10:16;2.78;;;1.25;;
80425;SDS011;69766;51.476;5.704;2023-06-04T15:12:42;4.65;;;1.23;;
80425;SDS011;69766;51.476;5.704;2023-06-04T15:15:08;3.63;;;1.40;;
80425;SDS011;69766;51.476;5.704;2023-06-04T15:17:35;3.80;;;1.40;;
80425;SDS011;69766;51.476;5.704;2023-06-04T15:20:01;2.55;;;1.27;;